Latest Weather Observations for Outer Harbor (Black Pole)

IDS60801

Issued at 9:31 pm CST Thursday 24 September 2020 (issued every 10 minutes, with the page automatically refreshed every 10 minutes)

About weather observations | Map of weather stations | Latest weather observations for SA | Other Formats
Station Details ID: 023052 Name: BLACK POLE Lat: -34.73 Lon: 138.47 Height: 6.27 m
Data from the previous 72 hours. | See also: Recent months for locations in South Australia
Date/Time
CST
Temp
°C
App
Temp
°C
Dew
Point
°C
Rel
Hum
%
Delta-T
°C
Wind Press
QNH
hPa
Press
MSL
hPa
Rain since
9am
mm
Dir  Spd
km/h
Gust
km/h
Spd
kts
Gust
kts
24/09:30pm - - - - - WSW 32 39 17 21 - - -
24/09:00pm - - - - - WSW 33 44 18 24 - - -
24/08:30pm - - - - - WSW 44 56 24 30 - - -
24/08:00pm - - - - - WSW 39 46 21 25 - - -
24/07:30pm - - - - - WSW 41 50 22 27 - - -
24/07:00pm - - - - - W 41 52 22 28 - - -
24/06:47pm - - - - - W 39 56 21 30 - - -
24/06:30pm - - - - - WSW 39 54 21 29 - - -
24/06:00pm - - - - - WSW 44 52 24 28 - - -
24/05:30pm - - - - - WSW 43 50 23 27 - - -
24/05:00pm - - - - - WSW 48 69 26 37 - - -
24/04:30pm - - - - - WSW 43 57 23 31 - - -
24/04:26pm - - - - - WSW 41 50 22 27 - - -
24/04:00pm - - - - - WNW 35 41 19 22 - - -
24/03:30pm - - - - - WNW 33 41 18 22 - - -
24/03:00pm - - - - - W 54 67 29 36 - - -
24/02:30pm - - - - - WNW 48 57 26 31 - - -
24/02:00pm - - - - - WNW 41 52 22 28 - - -
24/01:30pm - - - - - WNW 46 56 25 30 - - -
24/01:00pm - - - - - NW 43 50 23 27 - - -
24/12:30pm - - - - - NW 41 50 22 27 - - -
24/12:00pm - - - - - NW 39 46 21 25 - - -
24/11:30am - - - - - NW 35 46 19 25 - - -
24/11:00am - - - - - WNW 35 43 19 23 - - -
24/10:30am - - - - - WNW 35 43 19 23 - - -
24/10:00am - - - - - WNW 33 41 18 22 - - -
24/09:30am - - - - - WNW 32 39 17 21 - - -
24/09:00am - - - - - WNW 33 39 18 21 - - -
24/08:30am - - - - - W 28 35 15 19 - - -
24/08:00am - - - - - WNW 28 33 15 18 - - -
24/07:43am - - - - - WNW 32 46 17 25 - - -
24/07:30am - - - - - W 26 33 14 18 - - -
24/07:00am - - - - - WNW 28 39 15 21 - - -
24/06:30am - - - - - W 24 30 13 16 - - -
24/06:00am - - - - - W 20 28 11 15 - - -
24/05:30am - - - - - WNW 19 28 10 15 - - -
24/05:00am - - - - - WNW 30 44 16 24 - - -
24/04:30am - - - - - W 24 28 13 15 - - -
24/04:00am - - - - - W 20 28 11 15 - - -
24/03:30am - - - - - W 19 22 10 12 - - -
24/03:00am - - - - - W 20 28 11 15 - - -
24/02:30am - - - - - W 20 24 11 13 - - -
24/02:00am - - - - - WSW 17 22 9 12 - - -
24/01:30am - - - - - SW 19 30 10 16 - - -
24/01:00am - - - - - SW 19 24 10 13 - - -
24/12:30am - - - - - SW 24 30 13 16 - - -
24/12:00am - - - - - SW 26 33 14 18 - - -
 
Date/Time
CST
Temp
°C
App
Temp
°C
Dew
Point
°C
Rel
Hum
%
Delta-T
°C
Wind Press
QNH
hPa
Press
MSL
hPa
Rain since
9am
mm
Dir  Spd
km/h
Gust
km/h
Spd
kts
Gust
kts
23/11:30pm - - - - - SW 28 35 15 19 - - -
23/11:00pm - - - - - SW 28 35 15 19 - - -
23/10:30pm - - - - - SSW 30 35 16 19 - - -
23/10:00pm - - - - - WSW 28 35 15 19 - - -
23/09:30pm - - - - - WSW 32 37 17 20 - - -
23/09:00pm - - - - - WSW 35 43 19 23 - - -
23/08:30pm - - - - - WSW 37 46 20 25 - - -
23/08:00pm - - - - - WSW 37 46 20 25 - - -
23/07:30pm - - - - - WSW 37 44 20 24 - - -
23/07:00pm - - - - - WSW 35 43 19 23 - - -
23/06:30pm - - - - - SW 32 39 17 21 - - -
23/06:00pm - - - - - SW 35 43 19 23 - - -
23/05:30pm - - - - - SW 41 48 22 26 - - -
23/05:00pm - - - - - SW 41 52 22 28 - - -
23/04:30pm - - - - - SW 41 50 22 27 - - -
23/04:00pm - - - - - SW 41 52 22 28 - - -
23/03:30pm - - - - - SW 43 50 23 27 - - -
23/03:00pm - - - - - SW 41 50 22 27 - - -
23/02:30pm - - - - - SW 41 50 22 27 - - -
23/02:00pm - - - - - SW 39 46 21 25 - - -
23/01:30pm - - - - - SW 39 46 21 25 - - -
23/01:00pm - - - - - SW 39 48 21 26 - - -
23/12:30pm - - - - - SW 35 41 19 22 - - -
23/12:00pm - - - - - SW 28 39 15 21 - - -
23/11:30am - - - - - WSW 22 28 12 15 - - -
23/11:00am - - - - - WSW 24 35 13 19 - - -
23/10:30am - - - - - WSW 24 28 13 15 - - -
23/10:00am - - - - - WSW 26 32 14 17 - - -
23/09:30am - - - - - WSW 28 35 15 19 - - -
23/09:00am - - - - - WSW 32 39 17 21 - - -
23/08:30am - - - - - W 32 43 17 23 - - -
23/08:00am - - - - - W 30 35 16 19 - - -
23/07:30am - - - - - WSW 32 37 17 20 - - -
23/07:00am - - - - - WSW 35 41 19 22 - - -
23/06:30am - - - - - WSW 35 43 19 23 - - -
23/06:00am - - - - - WSW 35 44 19 24 - - -
23/05:30am - - - - - WSW 37 44 20 24 - - -
23/05:00am - - - - - WSW 37 46 20 25 - - -
23/04:30am - - - - - W 37 44 20 24 - - -
23/04:00am - - - - - W 37 43 20 23 - - -
23/03:30am - - - - - W 39 50 21 27 - - -
23/03:00am - - - - - W 39 46 21 25 - - -
23/02:30am - - - - - W 39 46 21 25 - - -
23/02:00am - - - - - W 39 48 21 26 - - -
23/01:30am - - - - - W 39 48 21 26 - - -
23/01:00am - - - - - W 35 43 19 23 - - -
23/12:30am - - - - - W 41 48 22 26 - - -
23/12:00am - - - - - W 41 48 22 26 - - -
 
Date/Time
CST
Temp
°C
App
Temp
°C
Dew
Point
°C
Rel
Hum
%
Delta-T
°C
Wind Press
QNH
hPa
Press
MSL
hPa
Rain since
9am
mm
Dir  Spd
km/h
Gust
km/h
Spd
kts
Gust
kts
22/11:30pm - - - - - W 44 54 24 29 - - -
22/11:00pm - - - - - W 41 52 22 28 - - -
22/10:47pm - - - - - W 41 65 22 35 - - -
22/10:30pm - - - - - WSW 39 54 21 29 - - -
22/10:00pm - - - - - W 30 37 16 20 - - -
22/09:30pm - - - - - W 28 33 15 18 - - -
22/09:00pm - - - - - W 35 43 19 23 - - -
22/08:30pm - - - - - W 37 44 20 24 - - -
22/08:00pm - - - - - W 41 50 22 27 - - -
22/07:30pm - - - - - W 39 48 21 26 - - -
22/07:00pm - - - - - W 41 48 22 26 - - -
22/06:30pm - - - - - W 35 41 19 22 - - -
22/06:00pm - - - - - W 32 37 17 20 - - -
22/05:30pm - - - - - W 39 46 21 25 - - -
22/05:00pm - - - - - W 35 44 19 24 - - -
22/04:30pm - - - - - WNW 39 46 21 25 - - -
22/04:00pm - - - - - W 30 44 16 24 - - -
22/03:30pm - - - - - WSW 32 37 17 20 - - -
22/03:00pm - - - - - W 43 54 23 29 - - -
22/02:30pm - - - - - W 37 50 20 27 - - -
22/02:00pm - - - - - WNW 39 44 21 24 - - -
22/01:30pm - - - - - WNW 43 56 23 30 - - -
22/01:23pm - - - - - W 48 57 26 31 - - -
22/01:07pm - - - - - WSW 43 63 23 34 - - -
22/01:00pm - - - - - WSW 39 50 21 27 - - -
22/12:55pm - - - - - W 43 52 23 28 - - -
22/12:30pm - - - - - WNW 46 56 25 30 - - -
22/12:09pm - - - - - W 44 69 24 37 - - -
22/12:00pm - - - - - WNW 46 57 25 31 - - -
22/11:30am - - - - - WNW 48 63 26 34 - - -
22/11:00am - - - - - W 43 52 23 28 - - -
22/10:30am - - - - - WNW 46 57 25 31 - - -
22/10:00am - - - - - WNW 46 57 25 31 - - -
22/09:30am - - - - - WNW 39 48 21 26 - - -
22/09:00am - - - - - W 46 56 25 30 - - -
22/08:51am - - - - - WNW 35 54 19 29 - - -
22/08:30am - - - - - WNW 37 52 20 28 - - -
22/08:00am - - - - - W 43 54 23 29 - - -
22/07:30am - - - - - WNW 43 56 23 30 - - -
22/07:00am - - - - - WNW 43 52 23 28 - - -
22/06:30am - - - - - WNW 46 57 25 31 - - -
22/06:00am - - - - - WNW 41 50 22 27 - - -
22/05:30am - - - - - WNW 48 59 26 32 - - -
22/05:00am - - - - - WNW 44 57 24 31 - - -
22/04:30am - - - - - WNW 44 56 24 30 - - -
22/04:17am - - - - - WNW 46 69 25 37 - - -
22/04:00am - - - - - WNW 46 57 25 31 - - -
22/03:30am - - - - - WNW 43 56 23 30 - - -
22/03:00am - - - - - WNW 46 57 25 31 - - -
22/02:54am - - - - - WNW 50 69 27 37 - - -
22/02:30am - - - - - WNW 50 61 27 33 - - -
22/02:00am - - - - - WNW 43 52 23 28 - - -
22/01:30am - - - - - WNW 48 61 26 33 - - -
22/01:00am - - - - - WNW 48 57 26 31 - - -
22/12:30am - - - - - WNW 48 63 26 34 - - -
22/12:00am - - - - - WNW 46 57 25 31 - - -
 
Date/Time
CST
Temp
°C
App
Temp
°C
Dew
Point
°C
Rel
Hum
%
Delta-T
°C
Wind Press
QNH
hPa
Press
MSL
hPa
Rain since
9am
mm
Dir  Spd
km/h
Gust
km/h
Spd
kts
Gust
kts
21/11:30pm - - - - - WNW 43 54 23 29 - - -
21/11:00pm - - - - - WNW 41 50 22 27 - - -
21/10:30pm - - - - - WNW 43 56 23 30 - - -
21/10:00pm - - - - - W 43 54 23 29 - - -
21/09:51pm - - - - - W 48 69 26 37 - - -

Other formats

Comma delimited format used in spreadsheet applications
http://www.bom.gov.au/fwo/IDS60801/IDS60801.95675.axf

JavaScript Object Notation format (JSON) in row-major order
http://www.bom.gov.au/fwo/IDS60801/IDS60801.95675.json

Data quality

Most of these data are generated automatically and are frequently updated. Quality checks on data are not normally performed. It is possible for incorrect values to appear. Refer to information at About Latest Weather Observations and please check the disclaimer before using these data.